Time;durP1;ratioP1;P1;durP2;ratioP2;P2;SDS_P1;SDS_P2;PMS_P1;PMS_P2;Temp;Humidity;BMP_temperature;BMP_pressure;BME280_temperature;BME280_humidity;BME280_pressure;Samples;Min_cycle;Max_cycle;Signal;HPM_P1;HPM_P2
2023/06/11 00:00:28;;;;;;;9.53;8.57;;;24.70;51.00;;;;;;4930640;29;20489;-86
2023/06/11 00:02:56;;;;;;;8.90;8.00;;;24.70;51.10;;;;;;4928280;29;20469;-87
2023/06/11 00:05:24;;;;;;;8.70;7.97;;;24.70;50.60;;;;;;4929894;28;20450;-88
2023/06/11 00:07:51;;;;;;;10.23;8.67;;;24.70;50.60;;;;;;4916835;29;20558;-87
2023/06/11 00:10:18;;;;;;;10.80;8.43;;;24.70;50.90;;;;;;4915721;29;20467;-86
2023/06/11 00:12:46;;;;;;;11.10;9.10;;;24.70;50.90;;;;;;4922440;29;21187;-87
2023/06/11 00:15:13;;;;;;;11.80;8.40;;;24.70;51.40;;;;;;4921933;29;20462;-87
2023/06/11 00:17:42;;;;;;;8.90;8.10;;;24.70;51.50;;;;;;4911984;29;20466;-86
2023/06/11 00:20:11;;;;;;;10.43;9.17;;;24.70;51.40;;;;;;4907357;29;20454;-86
2023/06/11 00:22:39;;;;;;;8.40;7.63;;;24.70;51.10;;;;;;4907025;29;20476;-83
2023/06/11 00:25:07;;;;;;;10.53;9.50;;;24.70;51.20;;;;;;4901987;29;21159;-87
2023/06/11 00:27:35;;;;;;;10.20;9.20;;;24.70;51.70;;;;;;4914980;29;20576;-87
2023/06/11 00:30:04;;;;;;;9.13;8.27;;;24.70;51.50;;;;;;4930331;29;20509;-88
2023/06/11 00:32:34;;;;;;;10.93;9.33;;;24.70;51.70;;;;;;4907267;29;20550;-87
2023/06/11 00:35:06;;;;;;;10.37;8.53;;;24.70;51.00;;;;;;4914115;29;20464;-86
2023/06/11 00:37:34;;;;;;;13.33;8.63;;;24.70;51.00;;;;;;4923799;29;20863;-85
2023/06/11 00:40:01;;;;;;;10.37;8.50;;;24.70;51.20;;;;;;4912196;29;20441;-87
2023/06/11 00:42:28;;;;;;;10.03;8.23;;;24.70;51.50;;;;;;4929373;29;20506;-87
2023/06/11 00:44:55;;;;;;;9.73;8.83;;;24.60;51.50;;;;;;4914895;29;20566;-87
2023/06/11 00:47:23;;;;;;;9.90;9.00;;;24.60;51.60;;;;;;4922193;29;20948;-86
2023/06/11 00:49:51;;;;;;;8.97;7.90;;;24.60;51.60;;;;;;4916934;29;20465;-87
2023/06/11 00:52:19;;;;;;;9.93;8.87;;;24.60;51.40;;;;;;4906682;29;20443;-86
2023/06/11 00:54:46;;;;;;;9.37;8.37;;;24.50;51.10;;;;;;4905426;29;20453;-87
2023/06/11 00:57:14;;;;;;;11.40;8.60;;;24.40;50.70;;;;;;4907004;29;20473;-87
2023/06/11 00:59:42;;;;;;;11.90;8.97;;;24.40;51.40;;;;;;4913685;29;21053;-86
2023/06/11 01:02:18;;;;;;;10.37;8.87;;;24.30;51.60;;;;;;4927518;29;20443;-86
2023/06/11 01:04:51;;;;;;;11.53;8.80;;;24.30;51.60;;;;;;4918311;29;20545;-87
2023/06/11 01:07:22;;;;;;;9.17;8.23;;;24.30;51.70;;;;;;4939659;28;21160;-85
2023/06/11 01:09:51;;;;;;;11.50;9.00;;;24.30;51.50;;;;;;4901751;29;20951;-86
2023/06/11 01:12:19;;;;;;;9.70;8.67;;;24.30;51.60;;;;;;4915343;29;20450;-86
2023/06/11 01:14:46;;;;;;;9.93;9.00;;;24.20;51.90;;;;;;4896840;29;20451;-86
2023/06/11 01:17:17;;;;;;;11.13;8.50;;;24.20;52.20;;;;;;4919083;29;20478;-86
2023/06/11 01:20:12;;;;;;;10.53;8.87;;;24.20;52.30;;;;;;4910048;29;20463;-87
2023/06/11 01:23:14;;;;;;;9.37;8.50;;;24.20;52.00;;;;;;4930920;29;20467;-86
2023/06/11 01:25:50;;;;;;;11.97;9.23;;;24.20;52.50;;;;;;4918375;29;20991;-86
2023/06/11 01:28:26;;;;;;;9.63;8.73;;;24.10;52.90;;;;;;4921249;29;20483;-87
2023/06/11 01:30:59;;;;;;;15.43;10.13;;;24.10;53.20;;;;;;4940384;29;20543;-87
2023/06/11 01:33:27;;;;;;;10.00;8.77;;;24.10;53.00;;;;;;4910531;29;20998;-87
2023/06/11 01:35:57;;;;;;;9.07;8.17;;;24.10;53.30;;;;;;4906329;29;20461;-85
2023/06/11 01:38:30;;;;;;;9.67;8.67;;;24.00;52.50;;;;;;4935747;28;20477;-85
2023/06/11 01:40:58;;;;;;;10.37;9.00;;;23.90;52.60;;;;;;4909777;29;20591;-86
2023/06/11 01:43:29;;;;;;;9.40;8.50;;;23.80;52.80;;;;;;4926431;29;20541;-85
2023/06/11 01:45:56;;;;;;;9.30;7.90;;;23.70;52.10;;;;;;4899837;29;20454;-85
2023/06/11 01:48:23;;;;;;;11.07;9.20;;;23.60;52.00;;;;;;4909821;29;20478;-87
2023/06/11 01:50:51;;;;;;;11.60;8.90;;;23.50;52.00;;;;;;4916512;29;20449;-87
2023/06/11 01:53:18;;;;;;;11.43;10.30;;;23.30;53.10;;;;;;4918384;29;20462;-86
2023/06/11 01:55:46;;;;;;;10.30;9.20;;;22.90;53.90;;;;;;4924633;29;20512;-86
2023/06/11 01:58:13;;;;;;;11.00;9.63;;;22.90;54.10;;;;;;4917560;29;20996;-87
2023/06/11 02:00:42;;;;;;;12.70;10.27;;;23.10;54.20;;;;;;4924773;29;20455;-87
2023/06/11 02:03:11;;;;;;;10.77;9.70;;;23.10;53.90;;;;;;4924756;29;20477;-86
2023/06/11 02:05:38;;;;;;;10.40;9.37;;;23.20;54.00;;;;;;4924653;29;20552;-86
2023/06/11 02:08:05;;;;;;;10.47;9.27;;;23.30;53.50;;;;;;4922467;29;20486;-86
2023/06/11 02:10:32;;;;;;;11.00;9.00;;;23.20;53.60;;;;;;4918136;29;20442;-86
2023/06/11 02:12:59;;;;;;;9.53;8.63;;;23.10;53.70;;;;;;4910890;29;20818;-86
2023/06/11 02:15:26;;;;;;;10.33;8.93;;;23.00;53.80;;;;;;4907235;29;20455;-86
2023/06/11 02:17:54;;;;;;;10.17;9.17;;;23.10;53.70;;;;;;4922486;29;20478;-85
2023/06/11 02:20:22;;;;;;;10.80;9.33;;;23.20;52.80;;;;;;4923739;29;20946;-85
2023/06/11 02:22:49;;;;;;;10.47;9.47;;;23.20;53.20;;;;;;4931678;29;20483;-83
2023/06/11 02:25:16;;;;;;;10.30;9.30;;;23.10;53.30;;;;;;4919693;29;20443;-84
2023/06/11 02:27:43;;;;;;;13.07;10.10;;;23.20;53.50;;;;;;4917548;29;21233;-86
2023/06/11 02:30:12;;;;;;;10.53;9.53;;;23.20;53.90;;;;;;4922554;29;20553;-86
2023/06/11 02:32:39;;;;;;;12.20;9.77;;;23.20;53.90;;;;;;4924939;29;20476;-85
2023/06/11 02:35:09;;;;;;;10.43;9.43;;;23.20;53.60;;;;;;4921677;29;20972;-86
2023/06/11 02:37:36;;;;;;;11.13;9.10;;;23.20;53.60;;;;;;4909283;29;21367;-87
2023/06/11 02:40:03;;;;;;;11.57;9.70;;;23.20;53.40;;;;;;4922362;29;20469;-87
2023/06/11 02:42:30;;;;;;;9.93;9.00;;;23.10;53.20;;;;;;4909954;29;20451;-86
2023/06/11 02:44:58;;;;;;;10.90;9.90;;;23.00;53.30;;;;;;4916172;29;20462;-86
2023/06/11 02:47:24;;;;;;;12.77;11.13;;;23.00;53.90;;;;;;4909299;29;20976;-86
2023/06/11 02:49:51;;;;;;;11.67;10.23;;;22.90;54.30;;;;;;4907845;29;20474;-83
2023/06/11 02:52:20;;;;;;;11.20;10.10;;;22.90;54.80;;;;;;4920277;29;20458;-86
2023/06/11 02:54:47;;;;;;;9.73;8.83;;;22.90;54.30;;;;;;4916177;29;20446;-86
2023/06/11 02:57:14;;;;;;;11.70;10.43;;;22.80;54.60;;;;;;4919653;29;20510;-86
2023/06/11 02:59:41;;;;;;;11.20;10.10;;;22.20;54.80;;;;;;4918858;29;20549;-84
2023/06/11 03:02:08;;;;;;;11.33;10.23;;;22.20;55.60;;;;;;4925078;29;20454;-85
2023/06/11 03:04:35;;;;;;;11.10;10.00;;;22.30;55.20;;;;;;4923247;29;21002;-86
2023/06/11 03:07:02;;;;;;;11.20;9.33;;;22.40;54.90;;;;;;4934267;28;20539;-85
2023/06/11 03:09:31;;;;;;;12.77;10.67;;;22.40;54.80;;;;;;4925966;29;20569;-86
2023/06/11 03:11:58;;;;;;;12.30;10.80;;;22.60;55.20;;;;;;4932435;29;20469;-86
2023/06/11 03:14:26;;;;;;;12.90;10.03;;;22.60;55.40;;;;;;4910770;29;20903;-86
2023/06/11 03:16:53;;;;;;;11.73;10.53;;;22.60;55.30;;;;;;4903900;29;20569;-87
2023/06/11 03:19:21;;;;;;;10.83;9.73;;;22.70;55.20;;;;;;4910408;29;20443;-86
2023/06/11 03:21:50;;;;;;;14.33;10.90;;;22.70;54.70;;;;;;4904222;29;20444;-85
2023/06/11 03:24:17;;;;;;;12.63;11.27;;;22.70;54.60;;;;;;4906580;29;20553;-86
2023/06/11 03:26:45;;;;;;;14.70;10.80;;;22.70;54.80;;;;;;4908031;29;20462;-87
2023/06/11 03:29:13;;;;;;;12.37;11.00;;;22.70;55.00;;;;;;4916374;29;20783;-87
2023/06/11 03:31:46;;;;;;;11.60;10.40;;;22.70;55.40;;;;;;4903975;29;20513;-87
2023/06/11 03:34:13;;;;;;;11.13;9.93;;;22.70;55.40;;;;;;4915703;29;20831;-86
2023/06/11 03:36:40;;;;;;;11.07;9.70;;;22.50;54.90;;;;;;4897714;29;21527;-81
2023/06/11 03:39:11;;;;;;;10.30;9.30;;;22.30;55.00;;;;;;4924947;28;21208;-86
2023/06/11 03:41:38;;;;;;;11.67;9.83;;;22.30;55.00;;;;;;4930785;29;21205;-85
2023/06/11 03:44:06;;;;;;;11.80;10.40;;;22.30;54.70;;;;;;4922408;29;20525;-87
2023/06/11 03:46:33;;;;;;;11.40;10.20;;;22.30;55.20;;;;;;4913572;29;20479;-87
2023/06/11 03:49:01;;;;;;;11.10;10.00;;;22.30;55.20;;;;;;4930782;28;20482;-86
2023/06/11 03:51:28;;;;;;;12.20;11.00;;;22.40;55.30;;;;;;4914817;29;20469;-86
2023/06/11 03:53:55;;;;;;;10.80;9.73;;;22.40;55.20;;;;;;4930575;29;20904;-84
2023/06/11 03:56:22;;;;;;;10.57;9.53;;;22.40;55.20;;;;;;4931384;29;20458;-85
2023/06/11 03:58:49;;;;;;;13.37;10.73;;;22.50;55.30;;;;;;4902510;29;20482;-86
2023/06/11 04:01:17;;;;;;;16.60;10.50;;;22.40;55.10;;;;;;4902955;29;20449;-86
2023/06/11 04:03:45;;;;;;;12.33;11.10;;;22.40;55.20;;;;;;4912260;29;20479;-86
2023/06/11 04:06:12;;;;;;;11.70;10.50;;;22.30;55.50;;;;;;4907856;29;20446;-87
2023/06/11 04:08:39;;;;;;;10.80;9.80;;;22.30;55.30;;;;;;4923747;29;20492;-87
2023/06/11 04:11:06;;;;;;;12.47;11.10;;;22.40;55.20;;;;;;4917476;29;20457;-87
2023/06/11 04:13:33;;;;;;;12.20;10.57;;;22.40;55.30;;;;;;4922547;29;20462;-86
2023/06/11 04:16:00;;;;;;;11.10;9.97;;;22.40;55.50;;;;;;4921373;29;20461;-86
2023/06/11 04:18:29;;;;;;;11.40;10.20;;;22.40;55.50;;;;;;4918736;29;20954;-85
2023/06/11 04:20:57;;;;;;;13.00;11.60;;;22.40;55.90;;;;;;4906546;29;20450;-87
2023/06/11 04:23:24;;;;;;;12.43;10.20;;;22.40;55.90;;;;;;4910320;29;20474;-86
2023/06/11 04:25:51;;;;;;;14.00;12.03;;;22.50;55.90;;;;;;4912148;29;21047;-86
2023/06/11 04:28:21;;;;;;;15.30;11.80;;;22.50;56.20;;;;;;4924045;29;20908;-87
2023/06/11 04:30:48;;;;;;;12.03;10.70;;;22.50;56.30;;;;;;4922495;29;20438;-85
2023/06/11 04:33:15;;;;;;;13.17;11.87;;;22.50;56.30;;;;;;4907504;29;20978;-86
2023/06/11 04:35:47;;;;;;;12.80;10.77;;;22.50;56.30;;;;;;4903084;29;20454;-84
2023/06/11 04:38:15;;;;;;;13.40;11.70;;;22.50;56.40;;;;;;4907106;29;20470;-85
2023/06/11 04:40:42;;;;;;;14.07;11.63;;;22.60;56.70;;;;;;4915790;29;20463;-83
2023/06/11 04:43:10;;;;;;;15.70;12.37;;;22.60;56.60;;;;;;4924242;29;20459;-86
2023/06/11 04:45:38;;;;;;;13.00;11.70;;;22.60;56.60;;;;;;4906898;29;20822;-88
2023/06/11 04:48:08;;;;;;;12.90;11.60;;;22.60;56.50;;;;;;4903944;29;21014;-87
2023/06/11 04:50:36;;;;;;;13.40;11.73;;;22.60;56.70;;;;;;4922993;29;20548;-87
2023/06/11 04:53:05;;;;;;;13.03;11.73;;;22.60;56.60;;;;;;4936041;28;21046;-85
2023/06/11 04:55:32;;;;;;;12.73;11.30;;;22.60;57.00;;;;;;4920052;29;20481;-86
2023/06/11 04:58:00;;;;;;;13.40;12.00;;;22.60;57.10;;;;;;4910333;29;20482;-86
2023/06/11 05:00:28;;;;;;;15.10;11.73;;;22.60;57.10;;;;;;4925612;29;20518;-86
2023/06/11 05:02:55;;;;;;;12.53;11.23;;;22.70;57.30;;;;;;4925569;29;20497;-86
2023/06/11 05:05:23;;;;;;;14.70;12.10;;;22.70;57.30;;;;;;4939884;28;20975;-86
2023/06/11 05:07:51;;;;;;;14.03;12.33;;;22.80;57.30;;;;;;4926504;29;20488;-85
2023/06/11 05:10:20;;;;;;;16.83;12.13;;;22.80;57.20;;;;;;4930053;29;20446;-84
2023/06/11 05:12:47;;;;;;;12.50;10.80;;;22.80;57.50;;;;;;4953350;29;20484;-85
2023/06/11 05:15:14;;;;;;;13.90;11.37;;;22.80;57.10;;;;;;4945096;29;21196;-84
2023/06/11 05:17:41;;;;;;;15.43;11.47;;;22.70;57.20;;;;;;4941579;29;20474;-84
2023/06/11 05:20:09;;;;;;;13.97;12.50;;;22.90;57.60;;;;;;4932610;29;20457;-86
2023/06/11 05:22:37;;;;;;;14.83;12.80;;;22.90;57.60;;;;;;4915851;29;20482;-86
2023/06/11 05:25:05;;;;;;;17.63;13.30;;;22.80;58.10;;;;;;4929508;29;20549;-85
2023/06/11 05:27:33;;;;;;;13.30;11.90;;;22.80;58.10;;;;;;4945823;29;20459;-87
2023/06/11 05:30:03;;;;;;;15.77;13.17;;;22.90;57.80;;;;;;4919189;29;21185;-85
2023/06/11 05:32:31;;;;;;;16.43;11.50;;;22.90;58.10;;;;;;4899712;29;20893;-84
2023/06/11 05:35:01;;;;;;;15.50;12.43;;;22.80;57.70;;;;;;4913860;29;20514;-85
2023/06/11 05:37:28;;;;;;;14.70;13.27;;;22.70;58.20;;;;;;4905966;29;21175;-84
2023/06/11 05:39:56;;;;;;;16.87;12.73;;;22.60;58.30;;;;;;4907130;29;20541;-83
2023/06/11 05:42:24;;;;;;;14.80;11.77;;;22.70;57.90;;;;;;4932382;28;20485;-83
2023/06/11 05:44:53;;;;;;;13.40;11.27;;;22.50;58.20;;;;;;4922500;29;20551;-84
2023/06/11 05:47:20;;;;;;;14.70;10.90;;;22.70;57.80;;;;;;4939035;28;20483;-85
2023/06/11 05:49:47;;;;;;;14.13;12.67;;;22.80;57.70;;;;;;4921444;29;20496;-85
2023/06/11 05:52:14;;;;;;;12.80;11.50;;;23.10;58.40;;;;;;4922404;29;20462;-86
2023/06/11 05:54:41;;;;;;;11.30;10.20;;;23.40;58.00;;;;;;4927944;29;20454;-86
2023/06/11 05:57:18;;;;;;;12.33;10.40;;;23.50;57.00;;;;;;4917769;28;20499;-83
2023/06/11 05:59:46;;;;;;;17.33;12.57;;;23.40;56.80;;;;;;4912447;29;20498;-85
2023/06/11 06:02:14;;;;;;;15.93;11.17;;;23.50;56.50;;;;;;4908042;29;20470;-85
2023/06/11 06:04:42;;;;;;;13.33;11.03;;;23.50;54.90;;;;;;4922549;29;20486;-85
2023/06/11 06:07:09;;;;;;;13.37;11.97;;;23.80;55.30;;;;;;4914180;29;21192;-84
2023/06/11 06:09:36;;;;;;;12.80;10.70;;;24.10;55.80;;;;;;4932950;29;20447;-85
2023/06/11 06:12:03;;;;;;;13.93;10.90;;;24.30;55.30;;;;;;4906057;29;20653;-86
2023/06/11 06:14:31;;;;;;;15.80;11.27;;;24.30;55.00;;;;;;4904984;29;20477;-83
2023/06/11 06:16:58;;;;;;;12.13;10.93;;;24.30;54.50;;;;;;4927654;28;20454;-86
2023/06/11 06:19:32;;;;;;;10.90;9.90;;;24.40;55.10;;;;;;4923126;29;20584;-86
2023/06/11 06:21:58;;;;;;;11.23;10.13;;;24.40;55.30;;;;;;4932336;29;20455;-86
2023/06/11 06:24:25;;;;;;;13.17;10.97;;;24.40;55.10;;;;;;4916783;29;20469;-84
2023/06/11 06:26:58;;;;;;;12.83;10.33;;;24.50;54.30;;;;;;4912160;29;20455;-86
2023/06/11 06:29:31;;;;;;;13.83;10.57;;;24.50;54.40;;;;;;4902475;29;20458;-85
2023/06/11 06:31:58;;;;;;;11.13;10.03;;;24.80;54.70;;;;;;4923402;29;20458;-85
2023/06/11 06:34:25;;;;;;;13.83;10.73;;;25.10;54.30;;;;;;4921780;29;20458;-84
2023/06/11 06:36:54;;;;;;;11.20;9.73;;;25.40;54.70;;;;;;4914880;28;20478;-85
2023/06/11 06:39:21;;;;;;;11.17;9.90;;;25.40;52.90;;;;;;4929120;29;20932;-84
2023/06/11 06:41:48;;;;;;;12.67;10.87;;;25.50;54.00;;;;;;4922795;29;20530;-84
2023/06/11 06:44:15;;;;;;;11.93;10.80;;;25.70;53.80;;;;;;4922864;29;20510;-86
2023/06/11 06:46:42;;;;;;;13.27;10.80;;;25.80;52.80;;;;;;4930006;29;20454;-85
2023/06/11 06:49:11;;;;;;;10.67;9.63;;;25.50;52.10;;;;;;4905899;29;20482;-84
2023/06/11 06:51:37;;;;;;;11.87;9.73;;;25.50;52.70;;;;;;4907100;29;20834;-86
2023/06/11 06:54:07;;;;;;;10.57;9.67;;;25.50;53.20;;;;;;4905476;29;20477;-86
2023/06/11 06:56:35;;;;;;;11.93;9.40;;;25.70;51.90;;;;;;4907355;29;20462;-84
2023/06/11 06:59:04;;;;;;;10.87;9.70;;;25.60;49.00;;;;;;4899379;29;20498;-87
2023/06/11 07:01:31;;;;;;;10.70;9.60;;;25.90;50.30;;;;;;4899954;29;20458;-85
2023/06/11 07:03:59;;;;;;;10.10;9.13;;;26.00;49.60;;;;;;4897375;29;20554;-84
2023/06/11 07:06:26;;;;;;;9.83;8.93;;;25.90;48.80;;;;;;4929036;29;20462;-87
2023/06/11 07:08:53;;;;;;;9.50;8.60;;;26.00;50.00;;;;;;4930668;28;20487;-85
2023/06/11 07:11:23;;;;;;;10.43;9.53;;;25.90;49.30;;;;;;4936501;29;20465;-84
2023/06/11 07:13:50;;;;;;;10.87;9.53;;;26.20;48.40;;;;;;4917109;29;20558;-86
2023/06/11 07:16:17;;;;;;;10.60;9.40;;;26.40;49.40;;;;;;4910238;29;20815;-86
2023/06/11 07:18:50;;;;;;;11.13;9.20;;;26.40;48.10;;;;;;4918431;29;20981;-85
2023/06/11 07:21:17;;;;;;;9.93;8.93;;;26.30;48.00;;;;;;4905203;29;20461;-86
2023/06/11 07:23:45;;;;;;;10.20;9.00;;;26.50;48.50;;;;;;4906429;29;20538;-85
2023/06/11 07:26:15;;;;;;;12.03;9.13;;;26.70;47.20;;;;;;4897812;29;20483;-85
2023/06/11 07:28:46;;;;;;;9.93;9.13;;;26.90;48.20;;;;;;4911872;29;20496;-86
2023/06/11 07:31:14;;;;;;;9.60;8.67;;;27.00;46.60;;;;;;4908212;29;20514;-86
2023/06/11 07:33:44;;;;;;;12.80;9.23;;;27.00;47.30;;;;;;4924440;29;20469;-87
2023/06/11 07:36:11;;;;;;;9.60;8.77;;;27.00;46.80;;;;;;4920520;29;20451;-87
2023/06/11 07:38:39;;;;;;;9.87;8.83;;;26.90;47.20;;;;;;4903292;29;20558;-87
2023/06/11 07:41:06;;;;;;;9.47;8.67;;;27.10;46.50;;;;;;4919890;29;20498;-87
2023/06/11 07:43:33;;;;;;;13.30;9.57;;;27.30;47.20;;;;;;4918508;29;20453;-87
2023/06/11 07:46:03;;;;;;;10.17;9.20;;;27.50;46.90;;;;;;4902803;29;20469;-86
2023/06/11 07:48:31;;;;;;;9.50;8.57;;;27.70;46.60;;;;;;4908388;29;20513;-86
2023/06/11 07:50:59;;;;;;;12.83;8.50;;;27.80;46.00;;;;;;4903811;29;20497;-87
2023/06/11 07:53:27;;;;;;;9.40;8.53;;;27.90;45.40;;;;;;4920869;29;20483;-86
2023/06/11 07:55:56;;;;;;;10.03;9.03;;;27.90;44.50;;;;;;4906577;29;20455;-87
2023/06/11 07:58:24;;;;;;;10.17;9.27;;;27.70;45.30;;;;;;4933166;28;20504;-85
2023/06/11 08:00:51;;;;;;;9.90;8.67;;;27.80;45.30;;;;;;4914461;29;20467;-85
2023/06/11 08:03:20;;;;;;;9.33;8.47;;;27.90;44.40;;;;;;4907641;29;20498;-83
2023/06/11 08:05:47;;;;;;;9.80;8.70;;;28.10;44.90;;;;;;4928921;28;20474;-86
2023/06/11 08:08:13;;;;;;;10.93;8.97;;;28.30;44.70;;;;;;4908456;29;20481;-86
2023/06/11 08:10:40;;;;;;;10.13;9.23;;;28.50;44.20;;;;;;4933791;28;20495;-86
2023/06/11 08:13:07;;;;;;;9.70;8.67;;;28.60;44.60;;;;;;4930217;29;20848;-87
2023/06/11 08:15:34;;;;;;;9.97;8.70;;;28.60;44.00;;;;;;4907221;29;20463;-86
2023/06/11 08:18:01;;;;;;;9.47;8.60;;;28.60;43.70;;;;;;4931316;29;20466;-84
2023/06/11 08:20:29;;;;;;;9.70;8.70;;;28.60;44.30;;;;;;4906545;29;20455;-87
2023/06/11 08:22:57;;;;;;;9.33;8.47;;;28.50;41.40;;;;;;4923260;29;20455;-86
2023/06/11 08:25:24;;;;;;;9.67;8.70;;;28.60;41.50;;;;;;4902181;29;20469;-85
2023/06/11 08:27:51;;;;;;;7.90;7.20;;;28.80;41.70;;;;;;4917589;29;20470;-86
2023/06/11 08:30:18;;;;;;;9.33;8.43;;;28.80;42.30;;;;;;4929281;29;20443;-86
2023/06/11 08:32:45;;;;;;;9.73;8.73;;;28.80;41.80;;;;;;4926636;29;20977;-86
2023/06/11 08:35:12;;;;;;;10.77;8.70;;;29.00;43.10;;;;;;4928918;29;20573;-87
2023/06/11 08:37:40;;;;;;;9.57;8.53;;;29.10;41.10;;;;;;4917865;29;20483;-87
2023/06/11 08:40:09;;;;;;;9.10;8.20;;;29.30;41.80;;;;;;4929148;29;20454;-87
2023/06/11 08:42:36;;;;;;;9.20;8.30;;;29.30;40.20;;;;;;4940250;29;21008;-86
2023/06/11 08:45:03;;;;;;;8.30;7.70;;;29.30;40.10;;;;;;4927185;28;21007;-87
2023/06/11 08:47:31;;;;;;;9.87;7.83;;;29.30;38.90;;;;;;4923509;29;20546;-86
2023/06/11 08:50:02;;;;;;;10.17;7.50;;;29.60;39.20;;;;;;4924511;29;20972;-86
2023/06/11 08:52:32;;;;;;;7.60;6.87;;;29.90;38.70;;;;;;4909581;29;20470;-87
2023/06/11 08:55:00;;;;;;;7.53;6.83;;;30.00;38.30;;;;;;4918033;29;20475;-86
2023/06/11 08:57:28;;;;;;;14.90;7.27;;;30.10;37.40;;;;;;4923068;29;20949;-86
2023/06/11 08:59:54;;;;;;;7.87;6.83;;;30.20;35.00;;;;;;4914526;29;20446;-85
2023/06/11 09:02:22;;;;;;;7.10;6.23;;;30.10;35.00;;;;;;4923769;29;21354;-85
2023/06/11 09:04:49;;;;;;;8.10;7.40;;;30.00;35.10;;;;;;4923533;29;20446;-87
2023/06/11 09:07:24;;;;;;;7.27;6.60;;;30.20;37.70;;;;;;4925328;29;20568;-86
2023/06/11 09:09:53;;;;;;;7.00;6.37;;;30.50;34.60;;;;;;4914765;29;20975;-87
2023/06/11 09:12:21;;;;;;;8.30;7.53;;;30.50;34.50;;;;;;4918096;29;21026;-86
2023/06/11 09:14:52;;;;;;;7.63;6.77;;;30.30;37.10;;;;;;4923117;29;20462;-85
2023/06/11 09:17:19;;;;;;;6.93;6.33;;;30.20;34.80;;;;;;4907643;29;20932;-85
2023/06/11 09:19:47;;;;;;;9.87;6.10;;;30.20;33.30;;;;;;4918280;29;20975;-85
2023/06/11 09:22:14;;;;;;;8.33;6.57;;;30.30;32.00;;;;;;4925196;29;20446;-85
2023/06/11 09:24:41;;;;;;;11.47;6.23;;;30.30;32.50;;;;;;4916422;29;20446;-86
2023/06/11 09:27:10;;;;;;;7.73;6.10;;;30.50;32.50;;;;;;4914655;28;21107;-86
2023/06/11 09:29:44;;;;;;;10.53;5.87;;;30.70;32.10;;;;;;4923042;29;20454;-86
2023/06/11 09:32:11;;;;;;;6.73;5.37;;;30.80;31.90;;;;;;4925153;29;20461;-86
2023/06/11 09:34:40;;;;;;;8.50;6.00;;;30.70;32.30;;;;;;4937737;29;20473;-85
2023/06/11 09:37:10;;;;;;;7.63;5.90;;;30.90;30.30;;;;;;4938689;29;20481;-86
2023/06/11 09:39:40;;;;;;;6.23;5.63;;;31.10;30.40;;;;;;4926173;29;21047;-86
2023/06/11 09:42:11;;;;;;;5.70;5.20;;;31.30;29.50;;;;;;4914065;29;20454;-86
2023/06/11 09:44:46;;;;;;;7.40;4.90;;;31.30;29.80;;;;;;4923232;29;20451;-86
2023/06/11 09:47:13;;;;;;;5.77;5.27;;;31.40;29.00;;;;;;4925932;29;20470;-86
2023/06/11 09:49:41;;;;;;;5.67;5.10;;;31.40;28.10;;;;;;4923951;29;20530;-86
2023/06/11 09:52:08;;;;;;;9.60;5.90;;;31.40;28.60;;;;;;4936438;29;20457;-86
2023/06/11 09:54:37;;;;;;;6.43;5.93;;;31.60;28.40;;;;;;4927105;29;20462;-86
2023/06/11 09:57:06;;;;;;;6.03;5.50;;;31.70;28.50;;;;;;4938219;29;20802;-86
2023/06/11 09:59:35;;;;;;;7.43;5.60;;;31.70;29.20;;;;;;4928332;29;20450;-84
2023/06/11 10:02:04;;;;;;;6.53;5.73;;;31.80;27.90;;;;;;4912998;29;20450;-85
2023/06/11 10:04:31;;;;;;;8.60;5.47;;;31.70;28.40;;;;;;4907600;29;20857;-86
2023/06/11 10:06:59;;;;;;;5.53;5.03;;;31.60;28.70;;;;;;4916737;29;20801;-86
2023/06/11 10:09:27;;;;;;;5.70;5.20;;;32.10;29.20;;;;;;4936828;28;20927;-87
2023/06/11 10:11:55;;;;;;;9.83;5.13;;;32.30;27.00;;;;;;4943226;28;20462;-87
2023/06/11 10:14:24;;;;;;;6.40;5.77;;;32.40;27.40;;;;;;4910959;29;20577;-88
2023/06/11 10:16:53;;;;;;;6.80;5.20;;;32.60;26.40;;;;;;4924757;28;20458;-85
2023/06/11 10:19:22;;;;;;;8.50;5.50;;;32.60;27.80;;;;;;4934134;29;21083;-86
2023/06/11 10:21:51;;;;;;;5.67;5.17;;;32.60;25.90;;;;;;4935879;29;20954;-85
2023/06/11 10:24:22;;;;;;;5.40;4.90;;;32.70;27.10;;;;;;4942493;29;20569;-86
2023/06/11 10:27:08;;;;;;;5.67;5.03;;;33.00;26.30;;;;;;4905741;29;20510;-85
2023/06/11 10:29:38;;;;;;;5.37;4.87;;;33.20;26.10;;;;;;4908200;29;20514;-87
2023/06/11 10:32:15;;;;;;;4.83;4.43;;;33.20;25.70;;;;;;4934505;29;20792;-86
2023/06/11 10:34:44;;;;;;;6.00;5.40;;;33.00;25.20;;;;;;4924266;29;20553;-86
2023/06/11 10:37:12;;;;;;;5.67;4.90;;;32.80;25.30;;;;;;4931700;29;20533;-86
2023/06/11 10:39:50;;;;;;;8.47;5.03;;;32.90;26.10;;;;;;4909432;29;20455;-87
2023/06/11 10:42:24;;;;;;;5.10;4.60;;;32.90;25.10;;;;;;4934885;29;20985;-86
2023/06/11 10:44:51;;;;;;;5.40;4.90;;;32.70;25.30;;;;;;4905031;29;20454;-86
2023/06/11 10:47:18;;;;;;;6.03;5.03;;;32.50;25.10;;;;;;4948569;28;21080;-86
2023/06/11 10:49:46;;;;;;;5.20;4.70;;;32.50;26.80;;;;;;4919356;29;20957;-87
2023/06/11 10:52:13;;;;;;;7.13;4.80;;;32.70;26.60;;;;;;4934162;29;20813;-87
2023/06/11 10:54:43;;;;;;;4.97;4.30;;;33.10;25.00;;;;;;4919597;29;20435;-86
2023/06/11 10:57:10;;;;;;;4.53;4.17;;;33.40;22.70;;;;;;4936089;28;20602;-85
2023/06/11 10:59:38;;;;;;;4.33;3.77;;;33.50;23.60;;;;;;4933024;29;20454;-86
2023/06/11 11:02:05;;;;;;;4.77;4.30;;;33.40;23.10;;;;;;4913158;29;20450;-85
2023/06/11 11:04:32;;;;;;;5.60;4.60;;;33.20;22.60;;;;;;4933723;29;20964;-84
2023/06/11 11:07:08;;;;;;;4.60;4.20;;;33.50;24.10;;;;;;4933118;29;20995;-85
2023/06/11 11:09:35;;;;;;;5.63;5.00;;;33.90;22.70;;;;;;4914029;29;20580;-85
2023/06/11 11:12:03;;;;;;;4.40;4.10;;;33.80;22.70;;;;;;4938401;28;20459;-86
2023/06/11 11:14:39;;;;;;;4.30;3.90;;;33.80;22.70;;;;;;4900597;29;20522;-84
2023/06/11 11:17:06;;;;;;;6.20;4.07;;;33.50;21.40;;;;;;4929247;28;20844;-84
2023/06/11 11:19:34;;;;;;;4.10;3.73;;;33.50;21.90;;;;;;4918891;29;20453;-85
2023/06/11 11:22:01;;;;;;;3.90;3.43;;;33.70;22.70;;;;;;4898895;29;20478;-85
2023/06/11 11:24:34;;;;;;;4.30;3.90;;;34.10;21.70;;;;;;4918332;29;20485;-84
2023/06/11 11:27:01;;;;;;;3.60;3.30;;;34.00;20.60;;;;;;4931308;29;21191;-83
2023/06/11 11:29:28;;;;;;;3.77;3.00;;;33.90;19.70;;;;;;4899335;29;20465;-84
2023/06/11 11:31:56;;;;;;;7.27;3.60;;;34.00;19.10;;;;;;4911440;29;20463;-85
2023/06/11 11:34:23;;;;;;;3.87;3.37;;;34.00;18.60;;;;;;4932794;29;20454;-84
2023/06/11 11:36:54;;;;;;;7.17;3.73;;;34.00;19.70;;;;;;4928678;28;20442;-85
2023/06/11 11:39:21;;;;;;;4.93;3.50;;;34.00;20.50;;;;;;4897985;29;20529;-86
2023/06/11 11:41:50;;;;;;;4.23;3.80;;;34.10;19.60;;;;;;4902715;29;20839;-84
2023/06/11 11:44:18;;;;;;;4.20;3.90;;;33.90;18.70;;;;;;4907160;29;20454;-85
2023/06/11 11:46:45;;;;;;;4.43;3.50;;;34.10;19.00;;;;;;4944791;28;21057;-85
2023/06/11 11:49:13;;;;;;;4.30;3.10;;;34.10;20.50;;;;;;4914867;29;20481;-85
2023/06/11 11:51:41;;;;;;;3.60;3.30;;;34.40;18.20;;;;;;4915387;29;20834;-87
2023/06/11 11:54:13;;;;;;;4.67;3.10;;;34.30;18.90;;;;;;4944473;28;20465;-83
2023/06/11 11:56:40;;;;;;;3.50;2.93;;;34.50;19.10;;;;;;4928514;29;20446;-85
2023/06/11 11:59:18;;;;;;;6.23;3.63;;;34.40;17.70;;;;;;4902919;29;21016;-84
2023/06/11 12:01:54;;;;;;;3.47;3.17;;;34.40;18.50;;;;;;4930285;28;21289;-85
2023/06/11 12:04:22;;;;;;;3.73;2.97;;;34.80;18.70;;;;;;4920717;29;20459;-85
2023/06/11 12:06:49;;;;;;;4.10;3.67;;;34.90;17.30;;;;;;4921089;29;20478;-84
2023/06/11 12:09:16;;;;;;;3.10;2.80;;;35.00;18.10;;;;;;4916125;29;20466;-86
2023/06/11 12:11:43;;;;;;;9.70;3.00;;;35.10;16.80;;;;;;4895983;29;20473;-85
2023/06/11 12:14:10;;;;;;;4.03;3.47;;;35.10;17.70;;;;;;4930576;29;20455;-85
2023/06/11 12:16:39;;;;;;;3.00;2.80;;;35.20;18.80;;;;;;4918776;29;20446;-85
2023/06/11 12:19:06;;;;;;;4.53;3.33;;;35.10;18.10;;;;;;4919857;29;20476;-85
2023/06/11 12:21:33;;;;;;;3.27;2.97;;;35.10;17.00;;;;;;4930099;28;20458;-84
2023/06/11 12:24:01;;;;;;;4.17;3.80;;;35.10;17.60;;;;;;4920318;29;20463;-85
2023/06/11 12:26:28;;;;;;;3.93;3.63;;;35.20;17.70;;;;;;4921656;29;20935;-85
2023/06/11 12:28:55;;;;;;;4.13;3.70;;;35.40;17.90;;;;;;4926655;29;20567;-84
2023/06/11 12:31:21;;;;;;;4.43;3.93;;;35.10;18.00;;;;;;4928461;29;20514;-85
2023/06/11 12:33:50;;;;;;;4.33;3.90;;;35.10;19.50;;;;;;4929635;29;20455;-84
2023/06/11 12:36:17;;;;;;;5.27;4.43;;;34.70;18.40;;;;;;4920164;29;20469;-85
2023/06/11 12:38:45;;;;;;;5.47;4.20;;;34.60;19.80;;;;;;4901372;29;20484;-84
2023/06/11 12:41:12;;;;;;;4.60;3.90;;;34.80;18.80;;;;;;4913991;29;20474;-85
2023/06/11 12:43:39;;;;;;;6.17;3.80;;;34.70;19.10;;;;;;4928529;29;20454;-85